Time;durP1;ratioP1;P1;durP2;ratioP2;P2;SDS_P1;SDS_P2;PMS_P1;PMS_P2;Temp;Humidity;BMP_temperature;BMP_pressure;BME280_temperature;BME280_humidity;BME280_pressure;Samples;Min_cycle;Max_cycle;Signal;HPM_P1;HPM_P2
2023/12/22 00:02:19;;;;;;;11.23;1.60;;;;;;;;;;5052573;28;20028;-63
2023/12/22 00:04:44;;;;;;;14.38;1.40;;;;;;;;;;5070888;28;20396;-64
2023/12/22 00:07:10;;;;;;;8.53;1.30;;;;;;;;;;5071070;28;20021;-63
2023/12/22 00:09:35;;;;;;;11.55;1.63;;;;;;;;;;5057869;28;20534;-63
2023/12/22 00:12:00;;;;;;;11.10;1.77;;;;;;;;;;5067831;28;20431;-63
2023/12/22 00:14:25;;;;;;;9.38;1.58;;;;;;;;;;5069936;28;20484;-61
2023/12/22 00:16:50;;;;;;;11.57;1.40;;;;;;;;;;5071182;28;20051;-63
2023/12/22 00:19:15;;;;;;;9.55;1.40;;;;;;;;;;5071412;28;20022;-63
2023/12/22 00:21:40;;;;;;;10.80;1.73;;;;;;;;;;5070212;28;20024;-63
2023/12/22 00:24:06;;;;;;;12.40;1.87;;;;;;;;;;5069016;28;20075;-63
2023/12/22 00:26:31;;;;;;;13.85;1.65;;;;;;;;;;5070186;28;20403;-63
2023/12/22 00:28:57;;;;;;;15.88;2.00;;;;;;;;;;5071438;28;20024;-62
2023/12/22 00:31:22;;;;;;;10.23;1.65;;;;;;;;;;5070596;28;20388;-64
2023/12/22 00:33:47;;;;;;;15.10;1.50;;;;;;;;;;5070465;28;20021;-63
2023/12/22 00:36:12;;;;;;;16.10;1.60;;;;;;;;;;5071001;28;20503;-62
2023/12/22 00:38:37;;;;;;;9.07;1.23;;;;;;;;;;5068082;28;20020;-63
2023/12/22 00:41:02;;;;;;;10.87;1.33;;;;;;;;;;5069584;28;20495;-63
2023/12/22 00:43:28;;;;;;;13.77;1.67;;;;;;;;;;5070290;28;20056;-63
2023/12/22 00:45:53;;;;;;;10.60;1.60;;;;;;;;;;5070542;28;20020;-63
2023/12/22 00:48:18;;;;;;;8.20;1.50;;;;;;;;;;5069908;28;20477;-62
2023/12/22 00:50:43;;;;;;;12.63;1.70;;;;;;;;;;5068141;28;20032;-63
2023/12/22 00:53:08;;;;;;;13.13;1.80;;;;;;;;;;5065458;28;20032;-63
2023/12/22 00:55:33;;;;;;;8.82;1.60;;;;;;;;;;5070295;28;20396;-63
2023/12/22 00:57:58;;;;;;;13.13;1.60;;;;;;;;;;5070363;28;20066;-63
2023/12/22 01:00:24;;;;;;;11.00;1.60;;;;;;;;;;5067681;28;20021;-63
2023/12/22 01:02:49;;;;;;;12.82;2.15;;;;;;;;;;5066445;28;20425;-63
2023/12/22 01:05:14;;;;;;;15.13;1.40;;;;;;;;;;5053945;28;20032;-63
2023/12/22 01:07:39;;;;;;;12.53;1.47;;;;;;;;;;5068164;28;20047;-63
2023/12/22 01:10:05;;;;;;;12.70;1.52;;;;;;;;;;5070218;28;20138;-63
2023/12/22 01:12:30;;;;;;;12.38;2.20;;;;;;;;;;5068581;28;20039;-63
2023/12/22 01:14:56;;;;;;;9.90;1.50;;;;;;;;;;5069235;28;20095;-63
2023/12/22 01:17:21;;;;;;;12.10;1.50;;;;;;;;;;5070149;28;20050;-62
2023/12/22 01:19:46;;;;;;;9.57;1.75;;;;;;;;;;5069246;28;20059;-63
2023/12/22 01:22:11;;;;;;;10.63;1.50;;;;;;;;;;5069617;28;20021;-62
2023/12/22 01:24:39;;;;;;;12.10;1.50;;;;;;;;;;5069921;28;20051;-62
2023/12/22 01:27:04;;;;;;;17.42;1.85;;;;;;;;;;5069260;28;20021;-63
2023/12/22 01:29:30;;;;;;;8.50;1.40;;;;;;;;;;5070276;28;20025;-62
2023/12/22 01:31:55;;;;;;;15.33;2.00;;;;;;;;;;5069708;28;20023;-63
2023/12/22 01:34:20;;;;;;;11.00;1.73;;;;;;;;;;5069528;28;20814;-63
2023/12/22 01:36:45;;;;;;;10.10;1.95;;;;;;;;;;5065554;28;20476;-62
2023/12/22 01:39:10;;;;;;;17.23;1.50;;;;;;;;;;5067897;28;20035;-62
2023/12/22 01:41:35;;;;;;;13.33;1.73;;;;;;;;;;5069447;28;20028;-63
2023/12/22 01:44:00;;;;;;;11.27;1.40;;;;;;;;;;5069928;28;20056;-62
2023/12/22 01:46:26;;;;;;;15.90;1.70;;;;;;;;;;5073377;28;20024;-63
2023/12/22 01:48:51;;;;;;;11.10;1.90;;;;;;;;;;5072037;28;20032;-63
2023/12/22 01:51:17;;;;;;;11.83;1.77;;;;;;;;;;5073058;28;20024;-62
2023/12/22 01:53:42;;;;;;;18.98;1.88;;;;;;;;;;5060023;28;20024;-62
2023/12/22 01:56:07;;;;;;;11.68;1.33;;;;;;;;;;5073868;28;20082;-63
2023/12/22 01:58:34;;;;;;;13.82;1.92;;;;;;;;;;5073601;28;20107;-64
2023/12/22 02:01:00;;;;;;;13.02;1.73;;;;;;;;;;5071396;28;20024;-62
2023/12/22 02:03:26;;;;;;;15.38;1.80;;;;;;;;;;5073108;28;20384;-63
2023/12/22 02:05:51;;;;;;;11.20;1.70;;;;;;;;;;5072637;28;20032;-63
2023/12/22 02:08:21;;;;;;;12.43;1.77;;;;;;;;;;5073456;28;20523;-63
2023/12/22 02:10:46;;;;;;;13.48;2.55;;;;;;;;;;5072265;28;20021;-63
2023/12/22 02:13:12;;;;;;;13.43;1.75;;;;;;;;;;5071404;28;20029;-63
2023/12/22 02:15:37;;;;;;;14.82;1.90;;;;;;;;;;5073860;28;20021;-63
2023/12/22 02:18:07;;;;;;;27.75;4.70;;;;;;;;;;5073700;28;20104;-63
2023/12/22 02:20:33;;;;;;;16.48;2.08;;;;;;;;;;5073507;28;20031;-63
2023/12/22 02:22:58;;;;;;;19.05;2.35;;;;;;;;;;5068830;28;20388;-63
2023/12/22 02:25:23;;;;;;;14.57;1.75;;;;;;;;;;5071724;28;20085;-62
2023/12/22 02:27:49;;;;;;;13.20;1.93;;;;;;;;;;5073341;28;20036;-63
2023/12/22 02:30:26;;;;;;;16.77;2.58;;;;;;;;;;5072621;28;20040;-64
2023/12/22 02:32:54;;;;;;;14.93;2.20;;;;;;;;;;5066347;28;20024;-62
2023/12/22 02:35:20;;;;;;;15.70;1.88;;;;;;;;;;5073307;28;20032;-63
2023/12/22 02:37:46;;;;;;;14.93;1.85;;;;;;;;;;5070246;28;20103;-62
2023/12/22 02:40:11;;;;;;;16.00;2.50;;;;;;;;;;5065646;28;20020;-62
2023/12/22 02:42:37;;;;;;;17.17;2.10;;;;;;;;;;5072131;28;20017;-63
2023/12/22 02:45:03;;;;;;;14.25;1.92;;;;;;;;;;5072882;28;20473;-63
2023/12/22 02:47:28;;;;;;;17.98;2.05;;;;;;;;;;5073150;28;20073;-62
2023/12/22 02:49:53;;;;;;;18.00;1.83;;;;;;;;;;5072089;28;20115;-63
2023/12/22 02:52:18;;;;;;;16.50;2.25;;;;;;;;;;5071439;28;20134;-62
2023/12/22 02:54:43;;;;;;;10.82;1.67;;;;;;;;;;5072866;28;20024;-62
2023/12/22 02:57:09;;;;;;;15.87;2.40;;;;;;;;;;5064762;28;20389;-62
2023/12/22 02:59:34;;;;;;;19.73;1.87;;;;;;;;;;5072579;28;20032;-63
2023/12/22 03:01:59;;;;;;;17.08;1.98;;;;;;;;;;5072383;28;20028;-63
2023/12/22 03:04:24;;;;;;;14.50;1.67;;;;;;;;;;5057278;28;20033;-63
2023/12/22 03:06:49;;;;;;;14.70;1.92;;;;;;;;;;5064522;28;20016;-62
2023/12/22 03:09:14;;;;;;;12.75;2.28;;;;;;;;;;5072396;28;20028;-62
2023/12/22 03:11:39;;;;;;;17.73;2.57;;;;;;;;;;5070764;28;20119;-62
2023/12/22 03:14:05;;;;;;;12.13;2.63;;;;;;;;;;5072760;28;20047;-61
2023/12/22 03:16:30;;;;;;;18.90;2.10;;;;;;;;;;5073212;28;20057;-62
2023/12/22 03:18:55;;;;;;;18.95;2.00;;;;;;;;;;5071811;28;20032;-62
2023/12/22 03:21:20;;;;;;;13.23;2.10;;;;;;;;;;5070060;28;20028;-62
2023/12/22 03:23:45;;;;;;;13.87;1.77;;;;;;;;;;5072867;28;20027;-62
2023/12/22 03:26:11;;;;;;;14.07;2.00;;;;;;;;;;5070446;28;20017;-63
2023/12/22 03:28:36;;;;;;;13.37;1.97;;;;;;;;;;5075612;28;20021;-62
2023/12/22 03:31:01;;;;;;;20.23;1.97;;;;;;;;;;5075780;28;20017;-63
2023/12/22 03:33:26;;;;;;;15.53;1.93;;;;;;;;;;5078674;28;20103;-62
2023/12/22 03:35:51;;;;;;;17.73;2.85;;;;;;;;;;5079900;28;20025;-64
2023/12/22 03:38:16;;;;;;;14.82;1.75;;;;;;;;;;5079553;28;20039;-63
2023/12/22 03:40:42;;;;;;;21.07;2.57;;;;;;;;;;5065654;28;20349;-63
2023/12/22 03:43:07;;;;;;;17.70;2.17;;;;;;;;;;5066481;28;20032;-64
2023/12/22 03:45:32;;;;;;;12.27;1.63;;;;;;;;;;5072024;28;20100;-63
2023/12/22 03:47:57;;;;;;;10.63;1.95;;;;;;;;;;5071945;28;20436;-63
2023/12/22 03:50:22;;;;;;;13.43;2.50;;;;;;;;;;5071380;28;20023;-63
2023/12/22 03:52:47;;;;;;;10.95;1.80;;;;;;;;;;5064855;28;20059;-61
2023/12/22 03:55:12;;;;;;;17.23;2.00;;;;;;;;;;5071767;28;20435;-62
2023/12/22 03:57:38;;;;;;;16.73;2.20;;;;;;;;;;5071592;28;20020;-63
2023/12/22 04:00:04;;;;;;;13.68;1.85;;;;;;;;;;5063696;28;20110;-63
2023/12/22 04:02:29;;;;;;;16.00;1.65;;;;;;;;;;5070447;28;20020;-64
2023/12/22 04:04:54;;;;;;;18.30;1.90;;;;;;;;;;5070811;28;20039;-63
2023/12/22 04:07:19;;;;;;;15.73;1.90;;;;;;;;;;5070628;28;20020;-63
2023/12/22 04:09:44;;;;;;;11.65;1.50;;;;;;;;;;5071170;28;20031;-63
2023/12/22 04:12:10;;;;;;;11.70;2.07;;;;;;;;;;5070758;28;20021;-63
2023/12/22 04:14:35;;;;;;;9.73;1.47;;;;;;;;;;5069985;28;20078;-63
2023/12/22 04:17:00;;;;;;;10.93;1.23;;;;;;;;;;5069068;28;20423;-64
2023/12/22 04:19:25;;;;;;;11.32;1.35;;;;;;;;;;5070025;28;20020;-62
2023/12/22 04:21:50;;;;;;;9.80;1.67;;;;;;;;;;5070518;28;20434;-63
2023/12/22 04:24:15;;;;;;;13.68;1.55;;;;;;;;;;5066784;28;20111;-64
2023/12/22 04:26:40;;;;;;;11.57;1.88;;;;;;;;;;5069399;28;20341;-63
2023/12/22 04:29:06;;;;;;;12.95;1.50;;;;;;;;;;5062335;28;20025;-62
2023/12/22 04:31:31;;;;;;;13.00;1.60;;;;;;;;;;5067979;28;20060;-61
2023/12/22 04:33:56;;;;;;;12.02;1.30;;;;;;;;;;5068875;28;20047;-62
2023/12/22 04:36:21;;;;;;;13.60;1.43;;;;;;;;;;5065722;28;20016;-62
2023/12/22 04:38:46;;;;;;;10.52;1.30;;;;;;;;;;5069716;28;20031;-62
2023/12/22 04:41:11;;;;;;;10.90;1.60;;;;;;;;;;5070383;28;20043;-62
2023/12/22 04:43:36;;;;;;;10.33;1.30;;;;;;;;;;5070440;28;20034;-60
2023/12/22 04:46:02;;;;;;;7.03;1.08;;;;;;;;;;5064651;28;20114;-63
2023/12/22 04:48:27;;;;;;;13.32;1.80;;;;;;;;;;5059325;28;20105;-63
2023/12/22 04:50:52;;;;;;;13.13;1.30;;;;;;;;;;5063755;28;20032;-62
2023/12/22 04:53:18;;;;;;;11.10;1.30;;;;;;;;;;5059356;28;20025;-63
2023/12/22 04:55:43;;;;;;;8.30;1.00;;;;;;;;;;5070617;28;20015;-62
2023/12/22 04:58:08;;;;;;;13.52;1.77;;;;;;;;;;5068118;28;20358;-63
2023/12/22 05:00:33;;;;;;;6.63;1.08;;;;;;;;;;5058056;28;20021;-63
2023/12/22 05:02:58;;;;;;;8.95;1.10;;;;;;;;;;5070626;28;20056;-64
2023/12/22 05:05:23;;;;;;;10.83;1.30;;;;;;;;;;5068591;28;20451;-63
2023/12/22 05:07:49;;;;;;;7.85;0.90;;;;;;;;;;5068139;28;20036;-63
2023/12/22 05:10:14;;;;;;;7.97;1.15;;;;;;;;;;5066760;28;20037;-61
2023/12/22 05:12:39;;;;;;;9.57;0.95;;;;;;;;;;5057489;28;20052;-63
2023/12/22 05:15:05;;;;;;;9.80;1.35;;;;;;;;;;5061081;28;20078;-63
2023/12/22 05:17:31;;;;;;;8.25;1.15;;;;;;;;;;5069074;28;20044;-63
2023/12/22 05:19:56;;;;;;;6.95;0.63;;;;;;;;;;5067925;28;21607;-62
2023/12/22 05:22:21;;;;;;;3.90;0.80;;;;;;;;;;5062477;28;20032;-61
2023/12/22 05:24:46;;;;;;;7.30;0.70;;;;;;;;;;5061768;28;20526;-61
2023/12/22 05:27:11;;;;;;;5.27;0.70;;;;;;;;;;5067162;28;20043;-61
2023/12/22 05:29:36;;;;;;;5.90;1.03;;;;;;;;;;5055092;28;20117;-60
2023/12/22 05:32:02;;;;;;;6.55;0.57;;;;;;;;;;5056664;28;20060;-60
2023/12/22 05:34:27;;;;;;;9.77;1.10;;;;;;;;;;5057720;28;20025;-61
2023/12/22 05:36:52;;;;;;;5.25;0.70;;;;;;;;;;5061930;28;20024;-62
2023/12/22 05:39:17;;;;;;;3.20;0.65;;;;;;;;;;5055749;28;20048;-62
2023/12/22 05:41:42;;;;;;;3.97;0.50;;;;;;;;;;5064474;28;20086;-62
2023/12/22 05:44:07;;;;;;;7.53;0.70;;;;;;;;;;5058923;28;20120;-62
2023/12/22 05:46:39;;;;;;;7.68;1.23;;;;;;;;;;5054514;28;20518;-63
2023/12/22 05:49:04;;;;;;;5.32;0.80;;;;;;;;;;5048599;28;20035;-62
2023/12/22 05:51:35;;;;;;;6.77;0.67;;;;;;;;;;5051739;28;20029;-61
2023/12/22 05:54:00;;;;;;;10.30;0.90;;;;;;;;;;5049110;28;20542;-61
2023/12/22 05:56:25;;;;;;;5.72;0.63;;;;;;;;;;5046703;28;20028;-61
2023/12/22 05:58:51;;;;;;;3.78;0.95;;;;;;;;;;5046404;28;20040;-61
2023/12/22 06:01:17;;;;;;;5.28;0.80;;;;;;;;;;5061808;28;20035;-62
2023/12/22 06:03:42;;;;;;;4.57;0.95;;;;;;;;;;5064613;28;20520;-62
2023/12/22 06:06:07;;;;;;;8.90;0.90;;;;;;;;;;5065733;28;20052;-61
2023/12/22 06:08:33;;;;;;;8.35;1.10;;;;;;;;;;5057985;28;20103;-62
2023/12/22 06:10:58;;;;;;;9.20;1.10;;;;;;;;;;5060330;28;20048;-62
2023/12/22 06:13:24;;;;;;;7.28;0.80;;;;;;;;;;5062415;28;20028;-61
2023/12/22 06:15:49;;;;;;;7.30;0.77;;;;;;;;;;5062144;28;20031;-62
2023/12/22 06:18:14;;;;;;;5.30;0.80;;;;;;;;;;5065376;28;20017;-62
2023/12/22 06:20:39;;;;;;;6.78;0.68;;;;;;;;;;5066001;28;20036;-62
2023/12/22 06:23:05;;;;;;;6.13;0.77;;;;;;;;;;5064958;28;20463;-61
2023/12/22 06:25:30;;;;;;;7.43;0.97;;;;;;;;;;5070326;28;20028;-61
2023/12/22 06:27:55;;;;;;;8.32;1.35;;;;;;;;;;5064560;28;20059;-61
2023/12/22 06:30:20;;;;;;;9.23;1.30;;;;;;;;;;5069508;28;20020;-62
2023/12/22 06:32:45;;;;;;;8.90;1.05;;;;;;;;;;5072991;28;20369;-62
2023/12/22 06:35:12;;;;;;;8.00;0.88;;;;;;;;;;5071291;28;20020;-60
2023/12/22 06:37:37;;;;;;;7.90;0.93;;;;;;;;;;5072877;28;20031;-61
2023/12/22 06:40:02;;;;;;;8.02;1.00;;;;;;;;;;5073257;28;20016;-60
2023/12/22 06:42:27;;;;;;;8.27;0.93;;;;;;;;;;5060882;28;20035;-63
2023/12/22 06:44:53;;;;;;;6.80;1.23;;;;;;;;;;5059041;28;20032;-62
2023/12/22 06:47:18;;;;;;;9.27;0.98;;;;;;;;;;5072699;28;20032;-62
2023/12/22 06:49:44;;;;;;;11.73;1.20;;;;;;;;;;5073015;28;20554;-62
2023/12/22 06:52:09;;;;;;;8.68;1.20;;;;;;;;;;5072430;28;20025;-62
2023/12/22 06:54:34;;;;;;;10.02;1.13;;;;;;;;;;5072682;28;20521;-62
2023/12/22 06:57:00;;;;;;;11.18;1.23;;;;;;;;;;5072981;28;20103;-62
2023/12/22 06:59:25;;;;;;;11.95;1.33;;;;;;;;;;5068441;28;20095;-62
2023/12/22 07:01:50;;;;;;;8.00;1.70;;;;;;;;;;5069732;28;20029;-61
2023/12/22 07:04:16;;;;;;;7.53;0.90;;;;;;;;;;5070637;28;20060;-62
2023/12/22 07:06:41;;;;;;;9.57;1.45;;;;;;;;;;5072534;28;20017;-62
2023/12/22 07:09:16;;;;;;;9.82;1.70;;;;;;;;;;5072650;28;20020;-62
2023/12/22 07:11:48;;;;;;;9.20;1.00;;;;;;;;;;5072376;28;20078;-62
2023/12/22 07:14:13;;;;;;;6.07;1.00;;;;;;;;;;5070465;28;20024;-61
2023/12/22 07:16:39;;;;;;;5.82;0.80;;;;;;;;;;5056340;28;20028;-62
2023/12/22 07:19:04;;;;;;;7.23;0.90;;;;;;;;;;5072206;28;20429;-61
2023/12/22 07:21:29;;;;;;;6.05;0.75;;;;;;;;;;5070802;28;20074;-61
2023/12/22 07:23:55;;;;;;;6.10;0.90;;;;;;;;;;5071675;28;20438;-61
2023/12/22 07:26:21;;;;;;;8.98;1.10;;;;;;;;;;5072355;28;20013;-60
2023/12/22 07:28:46;;;;;;;28.92;3.75;;;;;;;;;;5069990;28;20078;-61
2023/12/22 07:31:11;;;;;;;11.73;1.50;;;;;;;;;;5058008;28;20032;-61
2023/12/22 07:33:36;;;;;;;5.45;0.70;;;;;;;;;;5059309;28;20028;-62
2023/12/22 07:36:02;;;;;;;7.30;0.73;;;;;;;;;;5067870;28;20037;-61
2023/12/22 07:38:28;;;;;;;5.43;1.03;;;;;;;;;;5060146;28;20503;-61
2023/12/22 07:40:53;;;;;;;9.60;1.00;;;;;;;;;;5065050;28;20024;-61
2023/12/22 07:43:18;;;;;;;6.40;0.90;;;;;;;;;;5056235;28;20405;-62
2023/12/22 07:45:43;;;;;;;8.85;1.05;;;;;;;;;;5057893;28;20029;-61
2023/12/22 07:48:08;;;;;;;11.05;1.10;;;;;;;;;;5067077;28;20483;-61
2023/12/22 07:50:34;;;;;;;7.28;1.13;;;;;;;;;;5062942;28;20118;-61
2023/12/22 07:52:59;;;;;;;6.00;0.95;;;;;;;;;;5063950;28;20028;-61
2023/12/22 07:55:24;;;;;;;7.80;1.00;;;;;;;;;;5063161;28;20025;-61
2023/12/22 07:57:50;;;;;;;6.93;0.90;;;;;;;;;;5059185;28;20021;-61
2023/12/22 08:00:16;;;;;;;10.77;1.05;;;;;;;;;;5062585;28;20446;-61
2023/12/22 08:02:41;;;;;;;6.53;0.95;;;;;;;;;;5062796;28;20021;-61
2023/12/22 08:05:06;;;;;;;9.52;1.10;;;;;;;;;;5059906;28;20407;-61
2023/12/22 08:07:31;;;;;;;5.63;0.80;;;;;;;;;;5064074;28;20032;-61
2023/12/22 08:09:56;;;;;;;8.43;0.90;;;;;;;;;;5061541;28;20028;-59
2023/12/22 08:12:22;;;;;;;3.43;1.10;;;;;;;;;;5051892;28;20485;-60
2023/12/22 08:14:47;;;;;;;3.95;0.77;;;;;;;;;;5065727;28;20029;-61
2023/12/22 08:17:13;;;;;;;3.53;0.73;;;;;;;;;;5066148;28;20179;-60
2023/12/22 08:19:38;;;;;;;5.82;0.98;;;;;;;;;;5073797;28;20017;-59
2023/12/22 08:22:03;;;;;;;18.27;3.03;;;;;;;;;;5057147;28;20020;-59
2023/12/22 08:24:28;;;;;;;2.53;0.40;;;;;;;;;;5072676;28;20440;-58
2023/12/22 08:26:54;;;;;;;2.20;0.40;;;;;;;;;;5075081;28;20021;-59
2023/12/22 08:29:19;;;;;;;4.40;0.57;;;;;;;;;;5070970;28;20027;-60
2023/12/22 08:31:44;;;;;;;1.90;0.28;;;;;;;;;;5070237;28;20081;-61
2023/12/22 08:34:10;;;;;;;2.37;0.43;;;;;;;;;;5070846;28;20012;-60
2023/12/22 08:36:35;;;;;;;1.93;0.40;;;;;;;;;;5064746;28;20100;-60
2023/12/22 08:39:00;;;;;;;5.10;0.50;;;;;;;;;;5058539;28;20020;-60
2023/12/22 08:41:26;;;;;;;1.23;0.40;;;;;;;;;;5057009;28;20108;-60
2023/12/22 08:43:51;;;;;;;1.73;0.40;;;;;;;;;;5066622;28;20126;-58
2023/12/22 08:46:18;;;;;;;4.07;0.50;;;;;;;;;;5057744;28;20025;-60
2023/12/22 08:48:43;;;;;;;4.07;0.70;;;;;;;;;;5063339;28;20029;-62
2023/12/22 08:51:08;;;;;;;3.67;0.80;;;;;;;;;;5053391;28;20021;-61
2023/12/22 08:53:36;;;;;;;5.03;0.70;;;;;;;;;;5053674;28;20025;-61
2023/12/22 08:56:02;;;;;;;3.35;0.70;;;;;;;;;;5069352;28;20032;-60
2023/12/22 08:58:27;;;;;;;7.00;1.00;;;;;;;;;;5070466;28;20021;-61
2023/12/22 09:00:52;;;;;;;4.47;0.80;;;;;;;;;;5070661;28;20016;-62
2023/12/22 09:03:17;;;;;;;4.55;0.88;;;;;;;;;;5064553;28;20051;-61
2023/12/22 09:05:42;;;;;;;7.30;1.00;;;;;;;;;;5050716;28;20021;-61
2023/12/22 09:08:07;;;;;;;6.53;1.10;;;;;;;;;;5061455;28;20037;-60
2023/12/22 09:10:33;;;;;;;7.40;1.20;;;;;;;;;;5070080;28;20017;-62
2023/12/22 09:12:58;;;;;;;10.00;1.43;;;;;;;;;;5061887;28;20021;-61
2023/12/22 09:15:23;;;;;;;9.87;1.40;;;;;;;;;;5066878;28;20020;-61
2023/12/22 09:17:49;;;;;;;7.77;1.23;;;;;;;;;;5069790;28;20548;-61
2023/12/22 09:20:14;;;;;;;6.10;1.05;;;;;;;;;;5069826;28;20059;-60
2023/12/22 09:22:39;;;;;;;10.33;1.47;;;;;;;;;;5069667;28;20065;-63
2023/12/22 09:25:04;;;;;;;6.38;0.90;;;;;;;;;;5071005;28;20229;-61
2023/12/22 09:27:30;;;;;;;11.40;1.07;;;;;;;;;;5073224;28;20101;-62
2023/12/22 09:29:56;;;;;;;7.90;0.80;;;;;;;;;;5068178;28;20054;-62
2023/12/22 09:32:21;;;;;;;5.10;0.98;;;;;;;;;;5072671;28;20051;-63
2023/12/22 09:34:46;;;;;;;7.88;0.90;;;;;;;;;;5070352;28;20033;-61
2023/12/22 09:37:11;;;;;;;5.05;0.70;;;;;;;;;;5070117;28;20040;-61
2023/12/22 09:39:37;;;;;;;4.80;0.80;;;;;;;;;;5069909;28;20016;-62
2023/12/22 09:42:02;;;;;;;3.97;0.90;;;;;;;;;;5069337;28;20565;-63
2023/12/22 09:44:30;;;;;;;8.23;1.00;;;;;;;;;;5069933;28;20025;-63
2023/12/22 09:46:56;;;;;;;7.40;1.30;;;;;;;;;;5069704;28;20550;-62
2023/12/22 09:49:21;;;;;;;5.75;1.15;;;;;;;;;;5059355;28;20830;-63
2023/12/22 09:51:47;;;;;;;6.18;0.93;;;;;;;;;;5069454;28;20024;-62
2023/12/22 09:54:13;;;;;;;6.43;1.08;;;;;;;;;;5069898;28;20040;-63
2023/12/22 09:56:42;;;;;;;8.25;0.98;;;;;;;;;;5066287;28;20035;-63
2023/12/22 09:59:12;;;;;;;5.60;0.98;;;;;;;;;;5067558;28;20016;-63
2023/12/22 10:01:38;;;;;;;4.75;0.55;;;;;;;;;;5054359;28;20017;-63
2023/12/22 10:04:03;;;;;;;10.10;0.90;;;;;;;;;;5062940;28;20040;-63
2023/12/22 10:06:28;;;;;;;7.47;0.98;;;;;;;;;;5066267;28;20036;-63
2023/12/22 10:08:54;;;;;;;3.77;0.70;;;;;;;;;;5081648;28;20032;-61
2023/12/22 10:11:20;;;;;;;5.45;0.88;;;;;;;;;;5065559;28;20048;-62
2023/12/22 10:13:46;;;;;;;5.22;0.65;;;;;;;;;;5071964;28;20017;-63
2023/12/22 10:16:11;;;;;;;6.72;1.05;;;;;;;;;;5061116;28;20113;-61
2023/12/22 10:18:36;;;;;;;5.27;0.73;;;;;;;;;;5069201;28;20044;-62
2023/12/22 10:21:02;;;;;;;5.97;0.77;;;;;;;;;;5058158;28;20464;-63
2023/12/22 10:23:27;;;;;;;5.28;0.82;;;;;;;;;;5072360;28;20029;-65
2023/12/22 10:25:52;;;;;;;5.87;0.80;;;;;;;;;;5060700;28;20119;-65
2023/12/22 10:28:21;;;;;;;10.17;1.07;;;;;;;;;;5071442;28;20046;-62
2023/12/22 10:30:47;;;;;;;8.00;2.17;;;;;;;;;;5053048;28;20029;-63
2023/12/22 10:33:13;;;;;;;3.70;0.60;;;;;;;;;;5058993;28;20086;-63
2023/12/22 10:35:38;;;;;;;9.07;0.90;;;;;;;;;;5073106;28;20021;-64
2023/12/22 10:38:04;;;;;;;5.23;0.50;;;;;;;;;;5058497;28;20070;-63
2023/12/22 10:40:29;;;;;;;4.68;0.70;;;;;;;;;;5053228;28;20104;-64
2023/12/22 10:42:54;;;;;;;8.95;1.27;;;;;;;;;;5066666;28;20027;-63
2023/12/22 10:45:19;;;;;;;20.20;4.75;;;;;;;;;;5066946;28;20037;-64
2023/12/22 10:47:45;;;;;;;4.63;0.77;;;;;;;;;;5071980;28;20107;-64
2023/12/22 10:50:11;;;;;;;10.82;0.88;;;;;;;;;;5072665;28;20472;-64
2023/12/22 10:52:37;;;;;;;7.35;0.80;;;;;;;;;;5075930;28;20093;-63
2023/12/22 10:55:02;;;;;;;11.47;1.63;;;;;;;;;;5075196;28;20491;-63
2023/12/22 10:57:27;;;;;;;4.95;0.90;;;;;;;;;;5072478;28;20450;-63
2023/12/22 10:59:53;;;;;;;8.20;0.90;;;;;;;;;;5073658;28;20058;-63
2023/12/22 11:02:19;;;;;;;3.63;0.50;;;;;;;;;;5075345;28;20013;-62
2023/12/22 11:04:56;;;;;;;5.30;1.20;;;;;;;;;;5066453;28;21010;-64
2023/12/22 11:07:24;;;;;;;4.53;0.57;;;;;;;;;;5061796;28;20476;-63
2023/12/22 11:09:50;;;;;;;3.85;0.60;;;;;;;;;;5062576;28;20025;-64
2023/12/22 11:12:16;;;;;;;4.47;0.60;;;;;;;;;;5075720;28;20093;-62
2023/12/22 11:14:41;;;;;;;3.08;0.43;;;;;;;;;;5077643;28;20488;-63
2023/12/22 11:17:07;;;;;;;5.07;0.63;;;;;;;;;;5075207;28;20088;-62
2023/12/22 11:19:33;;;;;;;4.78;0.70;;;;;;;;;;5078347;28;20023;-64
2023/12/22 11:21:59;;;;;;;3.83;0.50;;;;;;;;;;5066239;28;20017;-62
2023/12/22 11:24:25;;;;;;;11.40;1.33;;;;;;;;;;5072219;28;20464;-62
2023/12/22 11:26:51;;;;;;;3.15;0.55;;;;;;;;;;5072232;28;20036;-63
2023/12/22 11:29:18;;;;;;;5.65;0.80;;;;;;;;;;5070171;28;20032;-63
2023/12/22 11:31:44;;;;;;;6.03;0.70;;;;;;;;;;5068343;28;20028;-63
2023/12/22 11:34:11;;;;;;;6.50;0.82;;;;;;;;;;5061915;28;20096;-64
2023/12/22 11:36:37;;;;;;;4.45;0.80;;;;;;;;;;5056715;28;20031;-63
2023/12/22 11:39:04;;;;;;;4.70;0.60;;;;;;;;;;5065429;28;20024;-63
2023/12/22 11:41:30;;;;;;;5.22;0.75;;;;;;;;;;5062634;28;20021;-63
2023/12/22 11:43:56;;;;;;;7.43;1.13;;;;;;;;;;5055356;28;20028;-64
2023/12/22 11:46:23;;;;;;;6.65;0.93;;;;;;;;;;5065057;28;20070;-63
2023/12/22 11:48:49;;;;;;;5.47;0.90;;;;;;;;;;5068344;28;20039;-63
2023/12/22 11:51:14;;;;;;;4.53;0.68;;;;;;;;;;5067357;28;20241;-64
2023/12/22 11:53:39;;;;;;;8.00;0.97;;;;;;;;;;5058469;28;20060;-62
2023/12/22 11:56:08;;;;;;;8.87;1.10;;;;;;;;;;5070755;28;20449;-65
2023/12/22 11:58:42;;;;;;;7.78;1.20;;;;;;;;;;5067985;28;20077;-63
2023/12/22 12:01:11;;;;;;;7.60;0.90;;;;;;;;;;5069666;28;20025;-64
2023/12/22 12:03:40;;;;;;;10.07;1.50;;;;;;;;;;5068231;28;20028;-64
2023/12/22 12:06:24;;;;;;;8.48;1.10;;;;;;;;;;5065716;28;20034;-64
2023/12/22 12:08:50;;;;;;;7.85;0.90;;;;;;;;;;5064794;28;20024;-65
2023/12/22 12:11:16;;;;;;;8.35;0.85;;;;;;;;;;5064424;28;20017;-62
2023/12/22 12:13:42;;;;;;;13.77;1.87;;;;;;;;;;5070188;28;20108;-64
2023/12/22 12:16:07;;;;;;;7.20;1.20;;;;;;;;;;5063497;28;20025;-64
2023/12/22 12:18:34;;;;;;;11.10;1.25;;;;;;;;;;5070261;28;20040;-64
2023/12/22 12:20:59;;;;;;;7.53;1.25;;;;;;;;;;5069644;28;20016;-64
2023/12/22 12:23:25;;;;;;;11.18;1.58;;;;;;;;;;5065801;28;20032;-65
2023/12/22 12:25:50;;;;;;;8.98;1.08;;;;;;;;;;5069420;28;20021;-64
2023/12/22 12:28:17;;;;;;;11.43;1.93;;;;;;;;;;5065142;28;20029;-62
2023/12/22 12:30:42;;;;;;;8.88;1.40;;;;;;;;;;5066187;28;20047;-64
2023/12/22 12:33:12;;;;;;;8.27;1.17;;;;;;;;;;5056094;28;20473;-62
2023/12/22 12:35:38;;;;;;;8.80;1.30;;;;;;;;;;5066441;28;20396;-62
2023/12/22 12:38:03;;;;;;;7.97;1.30;;;;;;;;;;5068046;28;20507;-63
2023/12/22 12:40:33;;;;;;;8.40;1.10;;;;;;;;;;5059295;28;20418;-62
2023/12/22 12:42:59;;;;;;;14.32;1.13;;;;;;;;;;5061254;28;20020;-62
2023/12/22 12:45:24;;;;;;;11.75;1.30;;;;;;;;;;5066341;28;20025;-62
2023/12/22 12:47:57;;;;;;;10.68;0.90;;;;;;;;;;5069941;28;20019;-63
2023/12/22 12:50:25;;;;;;;8.25;0.90;;;;;;;;;;5063577;28;20090;-65
2023/12/22 12:52:54;;;;;;;5.53;0.68;;;;;;;;;;5061262;28;20020;-62
2023/12/22 12:55:23;;;;;;;3.72;0.80;;;;;;;;;;5066408;28;20033;-63
2023/12/22 12:57:51;;;;;;;5.72;0.77;;;;;;;;;;5062520;28;20024;-62
2023/12/22 13:00:26;;;;;;;4.43;0.80;;;;;;;;;;5064173;28;20035;-64
2023/12/22 13:02:57;;;;;;;6.38;0.98;;;;;;;;;;5068938;28;20035;-63
2023/12/22 13:05:23;;;;;;;7.30;1.60;;;;;;;;;;5059536;28;20017;-64
2023/12/22 13:07:48;;;;;;;5.00;0.90;;;;;;;;;;5058662;28;20439;-64
2023/12/22 13:10:20;;;;;;;4.13;0.60;;;;;;;;;;5052104;28;20036;-62
2023/12/22 13:12:46;;;;;;;4.40;0.63;;;;;;;;;;5064325;28;20033;-64
2023/12/22 13:15:11;;;;;;;5.30;0.65;;;;;;;;;;5059994;28;20098;-63
2023/12/22 13:17:36;;;;;;;7.93;1.27;;;;;;;;;;5066247;28;20024;-64
2023/12/22 13:20:03;;;;;;;8.63;1.17;;;;;;;;;;5066281;28;20038;-63
2023/12/22 13:22:28;;;;;;;6.28;0.68;;;;;;;;;;5066039;28;20438;-63
2023/12/22 13:24:59;;;;;;;8.27;1.17;;;;;;;;;;5052542;28;20173;-62
2023/12/22 13:27:24;;;;;;;3.47;0.77;;;;;;;;;;5058451;28;20017;-63
2023/12/22 13:29:52;;;;;;;5.17;0.93;;;;;;;;;;5059810;28;20059;-63
2023/12/22 13:32:17;;;;;;;6.15;0.80;;;;;;;;;;5055731;28;20467;-63
2023/12/22 13:34:53;;;;;;;8.48;0.80;;;;;;;;;;5066936;28;20101;-63
2023/12/22 13:37:18;;;;;;;3.17;0.63;;;;;;;;;;5070369;28;20028;-62
2023/12/22 13:39:43;;;;;;;4.82;1.02;;;;;;;;;;5056400;28;20495;-63
2023/12/22 13:42:19;;;;;;;7.28;0.90;;;;;;;;;;5075828;28;20085;-62
2023/12/22 13:44:46;;;;;;;7.50;0.93;;;;;;;;;;5062585;28;20036;-63
2023/12/22 13:47:12;;;;;;;4.03;0.68;;;;;;;;;;5071860;28;20488;-63
2023/12/22 13:49:38;;;;;;;3.63;0.70;;;;;;;;;;5062522;28;20032;-64
2023/12/22 13:52:06;;;;;;;5.67;0.70;;;;;;;;;;5067090;28;20476;-64
2023/12/22 13:54:33;;;;;;;4.43;0.60;;;;;;;;;;5074558;28;20111;-64
2023/12/22 13:56:58;;;;;;;4.85;0.60;;;;;;;;;;5066911;28;20029;-64
2023/12/22 13:59:33;;;;;;;5.78;0.70;;;;;;;;;;5073715;28;20392;-66
2023/12/22 14:01:58;;;;;;;6.05;0.68;;;;;;;;;;5072253;28;20078;-64
2023/12/22 14:04:23;;;;;;;4.03;0.63;;;;;;;;;;5071696;28;20029;-63
2023/12/22 14:06:49;;;;;;;6.57;0.73;;;;;;;;;;5074129;28;20047;-64
2023/12/22 14:09:15;;;;;;;4.67;0.63;;;;;;;;;;5064834;28;20045;-64
2023/12/22 14:11:40;;;;;;;3.80;0.65;;;;;;;;;;5070818;28;20028;-64
2023/12/22 14:14:05;;;;;;;1.75;0.45;;;;;;;;;;5078062;28;20028;-65
2023/12/22 14:16:30;;;;;;;6.13;0.80;;;;;;;;;;5070175;28;20059;-65
2023/12/22 14:18:56;;;;;;;1.67;0.50;;;;;;;;;;5078026;28;20012;-64
2023/12/22 14:21:21;;;;;;;2.20;0.40;;;;;;;;;;5072607;28;20020;-64
2023/12/22 14:23:46;;;;;;;1.58;0.52;;;;;;;;;;5073017;28;20025;-63
2023/12/22 14:26:11;;;;;;;3.55;0.60;;;;;;;;;;5067034;28;20056;-64
2023/12/22 14:28:36;;;;;;;2.80;0.60;;;;;;;;;;5066038;28;20052;-64
2023/12/22 14:31:01;;;;;;;1.15;0.38;;;;;;;;;;5067907;28;20480;-65